createdAt,value
2023-04-02T00:01:26.960Z,2.80
2023-04-02T00:04:09.222Z,2.70
2023-04-02T00:06:45.266Z,2.70
2023-04-02T00:09:15.558Z,2.70
2023-04-02T00:11:55.065Z,2.70
2023-04-02T00:14:31.704Z,2.70
2023-04-02T00:17:01.803Z,2.70
2023-04-02T00:19:34.337Z,2.70
2023-04-02T00:22:04.352Z,2.70
2023-04-02T00:24:33.023Z,2.70
2023-04-02T00:27:01.558Z,2.70
2023-04-02T00:29:28.763Z,2.70
2023-04-02T00:32:00.153Z,2.70
2023-04-02T00:34:35.331Z,2.70
2023-04-02T00:37:02.903Z,2.70
2023-04-02T00:39:33.328Z,2.70
2023-04-02T00:42:06.860Z,2.70
2023-04-02T00:44:43.144Z,2.70
2023-04-02T00:47:21.584Z,2.70
2023-04-02T00:49:54.653Z,2.70
2023-04-02T00:52:26.473Z,2.70
2023-04-02T00:55:08.121Z,2.80
2023-04-02T00:57:39.689Z,2.80
2023-04-02T01:00:20.630Z,2.80
2023-04-02T01:03:13.367Z,2.80
2023-04-02T01:05:42.886Z,2.80
2023-04-02T01:08:32.161Z,2.80
2023-04-02T01:11:04.530Z,2.80
2023-04-02T01:13:46.374Z,2.80
2023-04-02T01:16:20.970Z,2.80
2023-04-02T01:19:09.732Z,2.80
2023-04-02T01:21:53.158Z,2.80
2023-04-02T01:24:22.322Z,2.70
2023-04-02T01:26:52.744Z,2.70
2023-04-02T01:29:27.473Z,2.70
2023-04-02T01:31:58.174Z,2.70
2023-04-02T01:34:27.668Z,2.70
2023-04-02T01:37:27.773Z,2.60
2023-04-02T01:40:22.395Z,2.70
2023-04-02T01:43:04.677Z,2.70
2023-04-02T01:45:32.874Z,2.70
2023-04-02T01:48:01.505Z,2.70
2023-04-02T01:50:39.340Z,2.70
2023-04-02T01:53:10.806Z,2.60
2023-04-02T01:55:43.069Z,2.60
2023-04-02T01:58:12.299Z,2.60
2023-04-02T02:00:48.251Z,2.60
2023-04-02T02:03:16.996Z,2.60
2023-04-02T02:05:44.709Z,2.60
2023-04-02T02:08:23.796Z,2.60
2023-04-02T02:10:51.318Z,2.60
2023-04-02T02:13:18.867Z,2.60
2023-04-02T02:15:46.830Z,2.60
2023-04-02T02:18:16.547Z,2.60
2023-04-02T02:20:43.868Z,2.50
2023-04-02T02:23:13.614Z,2.60
2023-04-02T02:25:41.312Z,2.60
2023-04-02T02:28:11.789Z,2.60
2023-04-02T02:30:54.389Z,2.60
2023-04-02T02:33:26.367Z,2.60
2023-04-02T02:36:14.624Z,2.60
2023-04-02T02:38:54.367Z,2.60
2023-04-02T02:41:24.938Z,2.60
2023-04-02T02:44:18.029Z,2.70
2023-04-02T02:47:14.381Z,2.60
2023-04-02T02:49:46.315Z,2.70
2023-04-02T02:55:01.912Z,2.70
2023-04-02T02:57:47.243Z,2.70
2023-04-02T03:00:16.564Z,2.60
2023-04-02T03:02:45.385Z,2.60
2023-04-02T03:05:20.957Z,2.60
2023-04-02T03:07:52.536Z,2.60
2023-04-02T03:10:35.204Z,2.60
2023-04-02T03:13:27.637Z,2.70
2023-04-02T03:16:22.584Z,2.60
2023-04-02T03:18:50.205Z,2.60
2023-04-02T03:21:23.234Z,2.60
2023-04-02T03:24:23.783Z,2.70
2023-04-02T03:27:15.759Z,2.70
2023-04-02T03:29:52.322Z,2.70
2023-04-02T03:32:40.986Z,2.70
2023-04-02T03:35:27.875Z,2.70
2023-04-02T03:38:16.607Z,2.70
2023-04-02T03:41:05.620Z,2.70
2023-04-02T03:43:41.724Z,2.70
2023-04-02T03:46:11.816Z,2.80
2023-04-02T03:48:44.042Z,2.80
2023-04-02T03:51:38.949Z,2.70
2023-04-02T03:54:08.904Z,2.80
2023-04-02T03:56:41.273Z,2.80
2023-04-02T03:59:25.881Z,2.80
2023-04-02T04:02:01.615Z,2.80
2023-04-02T04:04:32.017Z,2.80
2023-04-02T04:07:02.120Z,2.80
2023-04-02T04:09:41.954Z,2.80
2023-04-02T04:12:24.629Z,2.90
2023-04-02T04:15:11.627Z,2.90
2023-04-02T04:18:10.756Z,2.90
2023-04-02T04:20:46.546Z,2.90
2023-04-02T04:23:30.716Z,2.90
2023-04-02T04:26:09.959Z,2.90
2023-04-02T04:28:47.900Z,2.90
2023-04-02T04:31:49.809Z,2.90
2023-04-02T04:34:31.763Z,2.90
2023-04-02T04:37:07.926Z,3.00
2023-04-02T04:39:51.376Z,2.90
2023-04-02T04:42:25.994Z,3.00
2023-04-02T04:45:04.057Z,3.00
2023-04-02T04:47:38.419Z,3.00
2023-04-02T04:50:41.587Z,3.10
2023-04-02T04:53:15.985Z,3.10
2023-04-02T04:55:49.456Z,3.10
2023-04-02T04:58:23.209Z,3.10
2023-04-02T05:01:25.322Z,3.10
2023-04-02T05:04:16.615Z,3.10
2023-04-02T05:06:49.762Z,3.20
2023-04-02T05:09:26.681Z,3.20
2023-04-02T05:12:11.807Z,3.20
2023-04-02T05:15:02.023Z,3.20
2023-04-02T05:18:11.193Z,3.30
2023-04-02T05:21:07.272Z,3.20
2023-04-02T05:23:56.042Z,3.20
2023-04-02T05:26:31.642Z,3.30
2023-04-02T05:29:37.593Z,3.30
2023-04-02T05:32:17.930Z,3.30
2023-04-02T05:34:51.155Z,3.30
2023-04-02T05:37:21.782Z,3.30
2023-04-02T05:39:56.169Z,3.30
2023-04-02T05:42:32.301Z,3.30
2023-04-02T05:45:02.348Z,3.40
2023-04-02T05:47:32.332Z,3.40
2023-04-02T05:50:06.054Z,3.40
2023-04-02T05:52:40.049Z,3.40
2023-04-02T05:55:16.125Z,3.40
2023-04-02T05:58:17.734Z,3.50
2023-04-02T06:01:13.815Z,3.50
2023-04-02T06:03:47.244Z,3.50
2023-04-02T06:06:41.832Z,3.50
2023-04-02T06:09:37.977Z,3.60
2023-04-02T06:12:29.715Z,3.60
2023-04-02T06:14:57.225Z,3.70
2023-04-02T06:17:24.783Z,3.70
2023-04-02T06:19:54.542Z,3.80
2023-04-02T06:22:35.188Z,3.70
2023-04-02T06:25:28.003Z,3.80
2023-04-02T06:27:59.040Z,3.80
2023-04-02T06:30:34.167Z,3.80
2023-04-02T06:33:01.453Z,3.90
2023-04-02T06:35:28.691Z,3.90
2023-04-02T06:38:00.932Z,3.90
2023-04-02T06:40:50.645Z,3.90
2023-04-02T06:43:33.733Z,4.00
2023-04-02T06:46:07.751Z,4.10
2023-04-02T06:48:38.122Z,4.10
2023-04-02T06:51:11.485Z,4.20
2023-04-02T06:53:44.582Z,4.20
2023-04-02T06:56:42.034Z,4.20
2023-04-02T06:59:10.013Z,4.30
2023-04-02T07:01:51.663Z,4.30
2023-04-02T07:04:21.790Z,4.30
2023-04-02T07:06:51.959Z,4.40
2023-04-02T07:09:19.640Z,4.40
2023-04-02T07:11:46.840Z,4.40
2023-04-02T07:14:14.838Z,4.40
2023-04-02T07:16:43.810Z,4.50
2023-04-02T07:19:23.091Z,4.50
2023-04-02T07:21:50.176Z,4.60
2023-04-02T07:24:20.366Z,4.60
2023-04-02T07:26:48.463Z,4.70
2023-04-02T07:29:20.680Z,4.80
2023-04-02T07:31:48.004Z,4.90
2023-04-02T07:34:15.623Z,4.90
2023-04-02T07:36:43.071Z,4.90
2023-04-02T07:39:10.397Z,5.00
2023-04-02T07:41:59.062Z,5.00
2023-04-02T07:44:26.428Z,5.10
2023-04-02T07:46:53.968Z,5.20
2023-04-02T07:49:24.414Z,5.20
2023-04-02T07:51:52.910Z,5.30
2023-04-02T07:54:20.522Z,5.40
2023-04-02T07:56:47.722Z,5.50
2023-04-02T07:59:15.269Z,5.60
2023-04-02T08:01:43.396Z,5.70
2023-04-02T08:04:18.495Z,5.90
2023-04-02T08:06:46.235Z,5.90
2023-04-02T08:09:14.611Z,6.00
2023-04-02T08:11:42.515Z,6.00
2023-04-02T08:14:10.920Z,6.00
2023-04-02T08:16:50.206Z,6.10
2023-04-02T08:19:18.164Z,6.10
2023-04-02T08:21:46.318Z,6.20
2023-04-02T08:24:13.745Z,6.20
2023-04-02T08:26:42.317Z,6.30
2023-04-02T08:29:10.574Z,6.40
2023-04-02T08:31:38.578Z,6.50
2023-04-02T08:34:06.278Z,6.60
2023-04-02T08:36:40.045Z,6.80
2023-04-02T08:39:12.220Z,6.80
2023-04-02T08:42:38.126Z,6.80
2023-04-02T08:48:18.600Z,6.50
2023-04-02T08:50:46.285Z,6.40
2023-04-02T08:53:19.472Z,6.30
2023-04-02T08:56:00.222Z,6.20
2023-04-02T08:58:44.472Z,6.30
2023-04-02T09:02:02.885Z,6.60
2023-04-02T09:04:31.520Z,7.00
2023-04-02T09:07:01.579Z,7.30
2023-04-02T09:09:29.039Z,7.60
2023-04-02T09:12:04.445Z,7.80
2023-04-02T09:14:46.908Z,7.80
2023-04-02T09:17:24.428Z,7.80
2023-04-02T09:20:28.008Z,7.70
2023-04-02T09:22:57.144Z,7.60
2023-04-02T09:25:31.654Z,7.50
2023-04-02T09:28:04.552Z,7.30
2023-04-02T09:31:03.344Z,7.20
2023-04-02T09:33:43.896Z,7.10
2023-04-02T09:36:33.043Z,7.10
2023-04-02T09:39:20.547Z,7.10
2023-04-02T09:41:59.089Z,7.10
2023-04-02T09:44:33.108Z,7.20
2023-04-02T09:47:06.218Z,7.40
2023-04-02T09:49:36.483Z,7.70
2023-04-02T09:52:29.888Z,7.90
2023-04-02T09:55:26.564Z,7.90
2023-04-02T09:58:11.709Z,7.90
2023-04-02T10:00:42.103Z,7.80
2023-04-02T10:03:26.415Z,7.70
2023-04-02T10:06:14.840Z,7.80
2023-04-02T10:08:44.715Z,7.90
2023-04-02T10:11:17.606Z,8.00
2023-04-02T10:13:56.717Z,8.00
2023-04-02T10:16:38.969Z,8.00
2023-04-02T10:19:30.646Z,8.00
2023-04-02T10:22:01.075Z,8.10
2023-04-02T10:24:29.408Z,8.10
2023-04-02T10:27:37.986Z,8.20
2023-04-02T10:30:23.759Z,8.20
2023-04-02T10:32:57.062Z,8.20
2023-04-02T10:35:48.490Z,8.30
2023-04-02T10:38:16.071Z,8.30
2023-04-02T10:40:54.432Z,8.30
2023-04-02T10:43:29.318Z,8.30
2023-04-02T10:46:23.641Z,8.30
2023-04-02T10:49:06.431Z,8.20
2023-04-02T10:51:58.677Z,8.20
2023-04-02T10:54:39.226Z,8.20
2023-04-02T10:57:12.423Z,8.10
2023-04-02T10:59:54.597Z,8.10
2023-04-02T11:02:28.596Z,8.20
2023-04-02T11:05:00.523Z,8.10
2023-04-02T11:07:32.596Z,8.10
2023-04-02T11:10:01.147Z,8.10
2023-04-02T11:12:46.139Z,8.10
2023-04-02T11:15:19.327Z,8.20
2023-04-02T11:17:47.538Z,8.30
2023-04-02T11:20:44.299Z,8.40
2023-04-02T11:23:19.560Z,8.50
2023-04-02T11:25:47.451Z,8.60
2023-04-02T11:28:14.797Z,8.60
2023-04-02T11:30:42.907Z,8.60
2023-04-02T11:33:44.721Z,8.60
2023-04-02T11:36:55.176Z,8.50
2023-04-02T11:39:46.858Z,8.70
2023-04-02T11:42:20.313Z,8.70
2023-04-02T11:44:47.636Z,8.80
2023-04-02T11:47:20.060Z,8.70
2023-04-02T11:50:04.816Z,8.70
2023-04-02T11:52:37.072Z,8.60
2023-04-02T11:55:30.205Z,8.40
2023-04-02T11:58:23.095Z,8.30
2023-04-02T12:01:19.677Z,8.20
2023-04-02T12:04:03.748Z,8.30
2023-04-02T12:07:04.863Z,8.30
2023-04-02T12:09:47.707Z,8.50
2023-04-02T12:12:24.149Z,8.60
2023-04-02T12:15:01.407Z,8.70
2023-04-02T12:17:37.275Z,8.80
2023-04-02T12:20:23.004Z,8.80
2023-04-02T12:22:51.747Z,8.70
2023-04-02T12:25:23.670Z,8.70
2023-04-02T12:28:11.574Z,8.60
2023-04-02T12:30:42.441Z,8.70
2023-04-02T12:33:34.047Z,8.70
2023-04-02T12:36:03.364Z,8.90
2023-04-02T12:38:34.234Z,8.90
2023-04-02T12:41:07.123Z,8.90
2023-04-02T12:43:42.310Z,9.00
2023-04-02T12:46:13.031Z,9.00
2023-04-02T12:48:40.672Z,9.00
2023-04-02T12:51:08.609Z,9.00
2023-04-02T12:53:40.950Z,9.00
2023-04-02T12:56:11.410Z,9.10
2023-04-02T13:01:24.066Z,9.10
2023-04-02T13:04:02.715Z,9.00
2023-04-02T13:06:31.433Z,8.90
2023-04-02T13:09:01.040Z,9.10
2023-04-02T13:11:39.892Z,9.20
2023-04-02T13:14:15.738Z,9.20
2023-04-02T13:16:43.077Z,9.20
2023-04-02T13:19:17.437Z,9.20
2023-04-02T13:21:45.700Z,9.10
2023-04-02T13:24:20.050Z,9.20
2023-04-02T13:26:49.893Z,9.40
2023-04-02T13:29:35.809Z,9.40
2023-04-02T13:32:12.341Z,9.50
2023-04-02T13:34:39.684Z,9.60
2023-04-02T13:37:06.883Z,9.50
2023-04-02T13:39:34.128Z,9.40
2023-04-02T13:42:05.955Z,9.30
2023-04-02T13:44:37.823Z,9.20
2023-04-02T13:47:05.289Z,9.30
2023-04-02T13:49:32.934Z,9.30
2023-04-02T13:52:08.247Z,9.20
2023-04-02T13:54:49.648Z,9.20
2023-04-02T13:57:17.462Z,9.20
2023-04-02T13:59:44.757Z,9.10
2023-04-02T14:02:25.694Z,9.10
2023-04-02T14:05:09.386Z,9.00
2023-04-02T14:07:56.001Z,8.90
2023-04-02T14:10:35.726Z,8.80
2023-04-02T14:13:26.723Z,8.80
2023-04-02T14:16:18.173Z,8.90
2023-04-02T14:18:57.221Z,9.00
2023-04-02T14:22:06.161Z,9.10
2023-04-02T14:25:08.674Z,9.30
2023-04-02T14:27:58.613Z,9.30
2023-04-02T14:30:53.631Z,9.20
2023-04-02T14:33:49.758Z,9.00
2023-04-02T14:36:19.815Z,8.90
2023-04-02T14:39:05.783Z,8.80
2023-04-02T14:41:52.826Z,8.80
2023-04-02T14:44:24.060Z,8.90
2023-04-02T14:46:59.312Z,8.80
2023-04-02T14:49:35.990Z,8.90
2023-04-02T14:52:05.154Z,9.10
2023-04-02T14:54:52.091Z,9.20
2023-04-02T14:57:30.955Z,9.20
2023-04-02T15:00:24.210Z,9.10
2023-04-02T15:03:03.774Z,9.00
2023-04-02T15:05:47.644Z,8.90
2023-04-02T15:08:24.260Z,8.80
2023-04-02T15:10:59.398Z,8.80
2023-04-02T15:14:10.846Z,8.80
2023-04-02T15:16:38.305Z,8.80
2023-04-02T15:19:13.802Z,8.80
2023-04-02T15:22:05.212Z,8.70
2023-04-02T15:24:38.315Z,8.60
2023-04-02T15:27:33.675Z,8.40
2023-04-02T15:30:28.267Z,8.40
2023-04-02T15:33:17.724Z,8.40
2023-04-02T15:35:55.027Z,8.40
2023-04-02T15:38:44.276Z,8.30
2023-04-02T15:41:26.753Z,8.30
2023-04-02T15:44:16.237Z,8.30
2023-04-02T15:47:03.802Z,8.20
2023-04-02T15:49:39.447Z,8.10
2023-04-02T15:52:43.894Z,8.10
2023-04-02T15:55:19.669Z,8.10
2023-04-02T15:58:09.433Z,8.10
2023-04-02T16:01:07.816Z,8.10
2023-04-02T16:04:12.365Z,8.00
2023-04-02T16:06:48.438Z,7.90
2023-04-02T16:09:46.823Z,7.90
2023-04-02T16:12:25.868Z,7.80
2023-04-02T16:14:58.558Z,7.90
2023-04-02T16:17:33.085Z,7.90
2023-04-02T16:20:22.177Z,7.90
2023-04-02T16:23:24.930Z,7.90
2023-04-02T16:26:05.913Z,7.80
2023-04-02T16:28:55.853Z,7.80
2023-04-02T16:31:37.872Z,7.70
2023-04-02T16:34:40.225Z,7.60
2023-04-02T16:37:19.398Z,7.60
2023-04-02T16:39:53.630Z,7.60
2023-04-02T16:42:49.252Z,7.70
2023-04-02T16:45:58.025Z,7.70
2023-04-02T16:48:34.378Z,7.70
2023-04-02T16:51:17.001Z,7.70
2023-04-02T16:54:18.836Z,7.70
2023-04-02T16:57:07.018Z,7.60
2023-04-02T16:59:59.251Z,7.50
2023-04-02T17:02:47.745Z,7.40
2023-04-02T17:05:41.773Z,7.40
2023-04-02T17:08:21.276Z,7.30
2023-04-02T17:10:52.783Z,7.30
2023-04-02T17:13:41.954Z,7.20
2023-04-02T17:16:22.116Z,7.20
2023-04-02T17:18:57.893Z,7.10
2023-04-02T17:21:27.861Z,7.10
2023-04-02T17:24:00.432Z,7.10
2023-04-02T17:26:34.387Z,7.10
2023-04-02T17:29:08.705Z,7.00
2023-04-02T17:31:38.514Z,7.00
2023-04-02T17:34:23.226Z,6.90
2023-04-02T17:37:22.340Z,6.90
2023-04-02T17:40:27.405Z,6.80
2023-04-02T17:43:05.057Z,6.70
2023-04-02T17:46:02.883Z,6.70
2023-04-02T17:48:41.668Z,6.60
2023-04-02T17:51:17.362Z,6.60
2023-04-02T17:54:06.486Z,6.50
2023-04-02T17:56:55.292Z,6.40
2023-04-02T18:00:03.196Z,6.40
2023-04-02T18:02:52.588Z,6.30
2023-04-02T18:05:43.516Z,6.30
2023-04-02T18:08:41.622Z,6.20
2023-04-02T18:11:23.999Z,6.10
2023-04-02T18:14:11.484Z,6.10
2023-04-02T18:16:57.319Z,6.10
2023-04-02T18:19:40.939Z,6.10
2023-04-02T18:22:41.548Z,6.00
2023-04-02T18:25:15.326Z,6.00
2023-04-02T18:27:45.642Z,6.00
2023-04-02T18:30:50.697Z,6.00
2023-04-02T18:33:50.662Z,5.90
2023-04-02T18:36:31.513Z,5.90
2023-04-02T18:39:31.167Z,5.80
2023-04-02T18:42:22.725Z,5.80
2023-04-02T18:45:19.386Z,5.70
2023-04-02T18:47:56.877Z,5.70
2023-04-02T18:50:35.842Z,5.70
2023-04-02T18:53:24.858Z,5.60
2023-04-02T18:56:12.052Z,5.50
2023-04-02T18:58:53.380Z,5.50
2023-04-02T19:01:31.371Z,5.40
2023-04-02T19:04:05.501Z,5.40
2023-04-02T19:07:12.569Z,5.30
2023-04-02T19:09:44.635Z,5.30
2023-04-02T19:12:25.623Z,5.20
2023-04-02T19:14:53.867Z,5.20
2023-04-02T19:17:21.202Z,5.10
2023-04-02T19:19:51.148Z,5.10
2023-04-02T19:22:58.657Z,5.00
2023-04-02T19:25:36.094Z,5.00
2023-04-02T19:28:13.491Z,4.90
2023-04-02T19:31:09.363Z,4.90
2023-04-02T19:33:54.700Z,4.80
2023-04-02T19:36:33.436Z,4.80
2023-04-02T19:39:46.970Z,4.80
2023-04-02T19:42:34.343Z,4.70
2023-04-02T19:45:03.289Z,4.70
2023-04-02T19:47:30.785Z,4.60
2023-04-02T19:49:58.735Z,4.60
2023-04-02T19:52:26.493Z,4.60
2023-04-02T19:54:53.932Z,4.60
2023-04-02T19:57:21.127Z,4.50
2023-04-02T19:59:48.525Z,4.50
2023-04-02T20:02:16.203Z,4.50
2023-04-02T20:04:43.546Z,4.50
2023-04-02T20:07:10.814Z,4.40
2023-04-02T20:14:08.066Z,4.40
2023-04-02T20:16:37.098Z,4.30
2023-04-02T20:19:04.497Z,4.20
2023-04-02T20:21:38.546Z,4.20
2023-04-02T20:24:09.270Z,4.10
2023-04-02T20:26:39.499Z,4.10
2023-04-02T20:29:07.267Z,4.10
2023-04-02T20:31:34.938Z,4.00
2023-04-02T20:34:07.134Z,4.00
2023-04-02T20:36:34.864Z,4.00
2023-04-02T20:39:03.000Z,4.00
2023-04-02T20:41:30.696Z,4.00
2023-04-02T20:43:58.664Z,3.90
2023-04-02T20:46:26.481Z,3.90
2023-04-02T20:48:53.880Z,3.90
2023-04-02T20:51:22.079Z,3.80
2023-04-02T20:53:49.522Z,3.80
2023-04-02T20:56:19.606Z,3.80
2023-04-02T20:58:47.377Z,3.70
2023-04-02T21:01:21.582Z,3.70
2023-04-02T21:03:53.328Z,3.70
2023-04-02T21:06:22.854Z,3.70
2023-04-02T21:08:51.027Z,3.70
2023-04-02T21:11:19.750Z,3.70
2023-04-02T21:13:47.308Z,3.70
2023-04-02T21:16:21.102Z,3.60
2023-04-02T21:18:50.543Z,3.70
2023-04-02T21:21:19.449Z,3.60
2023-04-02T21:23:47.366Z,3.60
2023-04-02T21:26:18.500Z,3.60
2023-04-02T21:28:46.223Z,3.60
2023-04-02T21:31:16.710Z,3.50
2023-04-02T21:33:50.001Z,3.50
2023-04-02T21:36:33.480Z,3.50
2023-04-02T21:39:30.064Z,3.50
2023-04-02T21:42:01.585Z,3.50
2023-04-02T21:53:43.214Z,3.50
2023-04-02T21:56:41.240Z,3.40
2023-04-02T21:59:12.255Z,3.40
2023-04-02T22:01:46.059Z,3.40
2023-04-02T22:04:25.648Z,3.30
2023-04-02T22:06:54.448Z,3.40
2023-04-02T22:09:24.983Z,3.30
2023-04-02T22:12:06.971Z,3.30
2023-04-02T22:14:36.555Z,3.30
2023-04-02T22:17:10.125Z,3.30
2023-04-02T22:19:40.850Z,3.20
2023-04-02T22:22:30.852Z,3.20
2023-04-02T22:25:14.644Z,3.20
2023-04-02T22:28:40.583Z,3.20
2023-04-02T22:31:59.346Z,3.20
2023-04-02T22:43:16.241Z,3.10
2023-04-02T22:48:49.459Z,3.10
2023-04-02T22:51:19.525Z,3.10
2023-04-02T22:53:47.525Z,3.00
2023-04-02T22:56:20.239Z,3.00
2023-04-02T22:58:48.408Z,2.90
2023-04-02T23:01:21.614Z,2.90
2023-04-02T23:03:49.873Z,2.90
2023-04-02T23:06:19.287Z,2.90
2023-04-02T23:08:47.366Z,2.90
2023-04-02T23:11:26.727Z,2.90
2023-04-02T23:13:57.153Z,2.90
2023-04-02T23:16:29.538Z,2.90
2023-04-02T23:18:57.968Z,2.80
2023-04-02T23:21:26.453Z,2.80
2023-04-02T23:23:54.453Z,2.80
2023-04-02T23:26:29.731Z,2.80
2023-04-02T23:29:02.022Z,2.80
2023-04-02T23:31:30.497Z,2.80
2023-04-02T23:33:58.167Z,2.80
2023-04-02T23:36:35.702Z,2.80
2023-04-02T23:39:10.092Z,2.80
2023-04-02T23:41:39.349Z,2.70
2023-04-02T23:44:15.925Z,2.70
2023-04-02T23:46:44.627Z,2.70
2023-04-02T23:49:13.454Z,2.70
2023-04-02T23:51:46.214Z,2.70
2023-04-02T23:54:14.646Z,2.70
2023-04-02T23:56:43.035Z,2.60
2023-04-02T23:59:10.389Z,2.60
